sensor_id;sensor_type;location;lat;lon;timestamp;P1;durP1;ratioP1;P2;durP2;ratioP2
71288;SDS011;59068;52.502;9.860;2024-02-14T00:02:13;1.47;;;0.90;;
71288;SDS011;59068;52.502;9.860;2024-02-14T00:04:40;0.70;;;0.70;;
71288;SDS011;59068;52.502;9.860;2024-02-14T00:07:07;2.33;;;1.10;;
71288;SDS011;59068;52.502;9.860;2024-02-14T00:09:34;0.90;;;0.90;;
71288;SDS011;59068;52.502;9.860;2024-02-14T00:12:01;1.33;;;1.10;;
71288;SDS011;59068;52.502;9.860;2024-02-14T00:14:27;1.43;;;0.97;;
71288;SDS011;59068;52.502;9.860;2024-02-14T00:16:54;0.87;;;0.87;;
71288;SDS011;59068;52.502;9.860;2024-02-14T00:19:21;2.10;;;1.20;;
71288;SDS011;59068;52.502;9.860;2024-02-14T00:21:47;1.93;;;1.10;;
71288;SDS011;59068;52.502;9.860;2024-02-14T00:24:15;1.00;;;0.90;;
71288;SDS011;59068;52.502;9.860;2024-02-14T00:26:44;0.90;;;0.90;;
71288;SDS011;59068;52.502;9.860;2024-02-14T00:29:11;2.90;;;1.27;;
71288;SDS011;59068;52.502;9.860;2024-02-14T00:31:37;1.17;;;0.93;;
71288;SDS011;59068;52.502;9.860;2024-02-14T00:34:04;1.13;;;1.00;;
71288;SDS011;59068;52.502;9.860;2024-02-14T00:36:30;0.93;;;0.93;;
71288;SDS011;59068;52.502;9.860;2024-02-14T00:38:56;1.33;;;1.00;;
71288;SDS011;59068;52.502;9.860;2024-02-14T00:41:24;0.60;;;0.60;;
71288;SDS011;59068;52.502;9.860;2024-02-14T00:43:54;2.60;;;1.13;;
71288;SDS011;59068;52.502;9.860;2024-02-14T00:46:21;0.90;;;0.70;;
71288;SDS011;59068;52.502;9.860;2024-02-14T00:48:47;1.60;;;1.17;;
71288;SDS011;59068;52.502;9.860;2024-02-14T00:51:14;2.70;;;1.30;;
71288;SDS011;59068;52.502;9.860;2024-02-14T00:53:40;3.47;;;1.00;;
71288;SDS011;59068;52.502;9.860;2024-02-14T00:56:06;2.23;;;1.23;;
71288;SDS011;59068;52.502;9.860;2024-02-14T00:58:34;1.40;;;1.30;;
71288;SDS011;59068;52.502;9.860;2024-02-14T01:01:00;1.30;;;0.93;;
71288;SDS011;59068;52.502;9.860;2024-02-14T01:03:27;1.13;;;1.03;;
71288;SDS011;59068;52.502;9.860;2024-02-14T01:05:53;2.40;;;1.03;;
71288;SDS011;59068;52.502;9.860;2024-02-14T01:08:20;1.67;;;1.10;;
71288;SDS011;59068;52.502;9.860;2024-02-14T01:10:47;1.20;;;1.00;;
71288;SDS011;59068;52.502;9.860;2024-02-14T01:13:14;1.53;;;1.17;;
71288;SDS011;59068;52.502;9.860;2024-02-14T01:15:42;1.50;;;1.17;;
71288;SDS011;59068;52.502;9.860;2024-02-14T01:18:09;1.77;;;1.00;;
71288;SDS011;59068;52.502;9.860;2024-02-14T01:20:36;1.27;;;1.07;;
71288;SDS011;59068;52.502;9.860;2024-02-14T01:23:03;2.27;;;1.10;;
71288;SDS011;59068;52.502;9.860;2024-02-14T01:25:31;1.30;;;1.20;;
71288;SDS011;59068;52.502;9.860;2024-02-14T01:27:58;1.63;;;1.10;;
71288;SDS011;59068;52.502;9.860;2024-02-14T01:30:25;1.13;;;1.00;;
71288;SDS011;59068;52.502;9.860;2024-02-14T01:32:53;2.37;;;1.50;;
71288;SDS011;59068;52.502;9.860;2024-02-14T01:35:20;1.33;;;1.23;;
71288;SDS011;59068;52.502;9.860;2024-02-14T01:37:46;1.70;;;1.20;;
71288;SDS011;59068;52.502;9.860;2024-02-14T01:40:13;1.17;;;1.10;;
71288;SDS011;59068;52.502;9.860;2024-02-14T01:42:39;2.13;;;1.20;;
71288;SDS011;59068;52.502;9.860;2024-02-14T01:45:06;2.93;;;1.40;;
71288;SDS011;59068;52.502;9.860;2024-02-14T01:47:33;3.60;;;1.53;;
71288;SDS011;59068;52.502;9.860;2024-02-14T01:50:01;4.60;;;1.63;;
71288;SDS011;59068;52.502;9.860;2024-02-14T01:52:27;2.60;;;1.17;;
71288;SDS011;59068;52.502;9.860;2024-02-14T01:54:54;2.80;;;1.30;;
71288;SDS011;59068;52.502;9.860;2024-02-14T01:57:21;1.90;;;1.27;;
71288;SDS011;59068;52.502;9.860;2024-02-14T01:59:47;2.83;;;1.70;;
71288;SDS011;59068;52.502;9.860;2024-02-14T02:02:14;2.73;;;1.80;;
71288;SDS011;59068;52.502;9.860;2024-02-14T02:04:41;3.00;;;1.90;;
71288;SDS011;59068;52.502;9.860;2024-02-14T02:07:09;1.87;;;1.40;;
71288;SDS011;59068;52.502;9.860;2024-02-14T02:09:35;1.53;;;1.40;;
71288;SDS011;59068;52.502;9.860;2024-02-14T02:12:02;2.37;;;1.53;;
71288;SDS011;59068;52.502;9.860;2024-02-14T02:14:31;2.03;;;1.70;;
71288;SDS011;59068;52.502;9.860;2024-02-14T02:16:58;3.03;;;1.73;;
71288;SDS011;59068;52.502;9.860;2024-02-14T02:19:25;1.60;;;1.47;;
71288;SDS011;59068;52.502;9.860;2024-02-14T02:21:51;1.57;;;1.47;;
71288;SDS011;59068;52.502;9.860;2024-02-14T02:24:19;3.20;;;2.00;;
71288;SDS011;59068;52.502;9.860;2024-02-14T02:26:46;2.13;;;1.60;;
71288;SDS011;59068;52.502;9.860;2024-02-14T02:29:12;1.57;;;1.20;;
71288;SDS011;59068;52.502;9.860;2024-02-14T02:31:41;3.00;;;1.30;;
71288;SDS011;59068;52.502;9.860;2024-02-14T02:34:07;3.37;;;1.90;;
71288;SDS011;59068;52.502;9.860;2024-02-14T02:36:35;1.77;;;1.60;;
71288;SDS011;59068;52.502;9.860;2024-02-14T02:39:03;1.70;;;1.60;;
71288;SDS011;59068;52.502;9.860;2024-02-14T02:41:31;1.80;;;1.60;;
71288;SDS011;59068;52.502;9.860;2024-02-14T02:43:58;3.20;;;1.63;;
71288;SDS011;59068;52.502;9.860;2024-02-14T02:46:25;2.87;;;1.70;;
71288;SDS011;59068;52.502;9.860;2024-02-14T02:48:51;2.50;;;1.80;;
71288;SDS011;59068;52.502;9.860;2024-02-14T02:51:19;3.37;;;2.00;;
71288;SDS011;59068;52.502;9.860;2024-02-14T02:53:46;2.70;;;1.90;;
71288;SDS011;59068;52.502;9.860;2024-02-14T02:56:12;2.17;;;1.80;;
71288;SDS011;59068;52.502;9.860;2024-02-14T02:58:41;3.27;;;1.80;;
71288;SDS011;59068;52.502;9.860;2024-02-14T03:01:09;2.70;;;1.83;;
71288;SDS011;59068;52.502;9.860;2024-02-14T03:03:36;2.10;;;1.90;;
71288;SDS011;59068;52.502;9.860;2024-02-14T03:06:04;2.10;;;1.83;;
71288;SDS011;59068;52.502;9.860;2024-02-14T03:08:31;3.87;;;1.70;;
71288;SDS011;59068;52.502;9.860;2024-02-14T03:11:02;1.80;;;1.70;;
71288;SDS011;59068;52.502;9.860;2024-02-14T03:13:28;1.80;;;1.50;;
71288;SDS011;59068;52.502;9.860;2024-02-14T03:15:56;2.93;;;2.00;;
71288;SDS011;59068;52.502;9.860;2024-02-14T03:18:23;2.93;;;1.90;;
71288;SDS011;59068;52.502;9.860;2024-02-14T03:20:49;2.00;;;1.87;;
71288;SDS011;59068;52.502;9.860;2024-02-14T03:23:18;2.40;;;2.03;;
71288;SDS011;59068;52.502;9.860;2024-02-14T03:25:45;3.60;;;1.80;;
71288;SDS011;59068;52.502;9.860;2024-02-14T03:28:11;2.97;;;1.67;;
71288;SDS011;59068;52.502;9.860;2024-02-14T03:30:38;2.13;;;1.77;;
71288;SDS011;59068;52.502;9.860;2024-02-14T03:33:06;5.47;;;2.03;;
71288;SDS011;59068;52.502;9.860;2024-02-14T03:35:33;3.07;;;1.93;;
71288;SDS011;59068;52.502;9.860;2024-02-14T03:38:02;4.37;;;2.37;;
71288;SDS011;59068;52.502;9.860;2024-02-14T03:40:28;3.47;;;2.13;;
71288;SDS011;59068;52.502;9.860;2024-02-14T03:42:56;3.23;;;2.30;;
71288;SDS011;59068;52.502;9.860;2024-02-14T03:45:23;3.20;;;2.63;;
71288;SDS011;59068;52.502;9.860;2024-02-14T03:47:49;4.23;;;2.33;;
71288;SDS011;59068;52.502;9.860;2024-02-14T03:50:17;4.50;;;2.07;;
71288;SDS011;59068;52.502;9.860;2024-02-14T03:52:45;3.27;;;2.43;;
71288;SDS011;59068;52.502;9.860;2024-02-14T03:55:11;5.23;;;2.50;;
71288;SDS011;59068;52.502;9.860;2024-02-14T03:57:39;2.60;;;2.20;;
71288;SDS011;59068;52.502;9.860;2024-02-14T04:00:06;3.57;;;2.30;;
71288;SDS011;59068;52.502;9.860;2024-02-14T04:02:35;3.37;;;2.60;;
71288;SDS011;59068;52.502;9.860;2024-02-14T04:05:01;2.87;;;2.13;;
71288;SDS011;59068;52.502;9.860;2024-02-14T04:07:30;5.83;;;2.37;;
71288;SDS011;59068;52.502;9.860;2024-02-14T04:09:56;4.70;;;2.40;;
71288;SDS011;59068;52.502;9.860;2024-02-14T04:12:23;3.40;;;2.33;;
71288;SDS011;59068;52.502;9.860;2024-02-14T04:14:50;4.30;;;2.33;;
71288;SDS011;59068;52.502;9.860;2024-02-14T04:17:16;3.40;;;2.90;;
71288;SDS011;59068;52.502;9.860;2024-02-14T04:19:43;2.43;;;2.23;;
71288;SDS011;59068;52.502;9.860;2024-02-14T04:22:10;4.37;;;2.50;;
71288;SDS011;59068;52.502;9.860;2024-02-14T04:24:38;2.47;;;2.17;;
71288;SDS011;59068;52.502;9.860;2024-02-14T04:27:04;2.77;;;2.13;;
71288;SDS011;59068;52.502;9.860;2024-02-14T04:29:31;3.60;;;2.30;;
71288;SDS011;59068;52.502;9.860;2024-02-14T04:31:58;2.97;;;2.57;;
71288;SDS011;59068;52.502;9.860;2024-02-14T04:34:25;3.43;;;2.07;;
71288;SDS011;59068;52.502;9.860;2024-02-14T04:36:51;2.53;;;2.23;;
71288;SDS011;59068;52.502;9.860;2024-02-14T04:39:18;4.20;;;2.40;;
71288;SDS011;59068;52.502;9.860;2024-02-14T04:41:46;4.37;;;2.10;;
71288;SDS011;59068;52.502;9.860;2024-02-14T04:44:12;5.77;;;2.43;;
71288;SDS011;59068;52.502;9.860;2024-02-14T04:46:38;2.57;;;2.30;;
71288;SDS011;59068;52.502;9.860;2024-02-14T04:49:08;4.47;;;2.40;;
71288;SDS011;59068;52.502;9.860;2024-02-14T04:51:35;3.90;;;2.67;;
71288;SDS011;59068;52.502;9.860;2024-02-14T04:54:01;3.07;;;2.50;;
71288;SDS011;59068;52.502;9.860;2024-02-14T04:56:27;3.07;;;2.47;;
71288;SDS011;59068;52.502;9.860;2024-02-14T04:58:55;4.97;;;2.47;;
71288;SDS011;59068;52.502;9.860;2024-02-14T05:01:22;3.33;;;2.63;;
71288;SDS011;59068;52.502;9.860;2024-02-14T05:03:48;4.47;;;2.37;;
71288;SDS011;59068;52.502;9.860;2024-02-14T05:06:15;6.57;;;2.47;;
71288;SDS011;59068;52.502;9.860;2024-02-14T05:08:42;3.43;;;2.70;;
71288;SDS011;59068;52.502;9.860;2024-02-14T05:11:08;5.83;;;2.80;;
71288;SDS011;59068;52.502;9.860;2024-02-14T05:13:35;3.57;;;2.73;;
71288;SDS011;59068;52.502;9.860;2024-02-14T05:16:04;3.43;;;2.60;;
71288;SDS011;59068;52.502;9.860;2024-02-14T05:18:31;4.17;;;2.30;;
71288;SDS011;59068;52.502;9.860;2024-02-14T05:20:57;4.17;;;2.60;;
71288;SDS011;59068;52.502;9.860;2024-02-14T05:23:24;5.07;;;2.57;;
71288;SDS011;59068;52.502;9.860;2024-02-14T05:25:50;3.40;;;2.50;;
71288;SDS011;59068;52.502;9.860;2024-02-14T05:28:18;3.37;;;2.77;;
71288;SDS011;59068;52.502;9.860;2024-02-14T05:30:46;2.77;;;2.53;;
71288;SDS011;59068;52.502;9.860;2024-02-14T05:33:13;2.53;;;2.30;;
71288;SDS011;59068;52.502;9.860;2024-02-14T05:35:40;4.13;;;2.30;;
71288;SDS011;59068;52.502;9.860;2024-02-14T05:38:06;2.97;;;2.57;;
71288;SDS011;59068;52.502;9.860;2024-02-14T05:40:33;3.70;;;2.60;;
71288;SDS011;59068;52.502;9.860;2024-02-14T05:43:04;2.53;;;2.33;;
71288;SDS011;59068;52.502;9.860;2024-02-14T05:45:32;4.23;;;2.33;;
71288;SDS011;59068;52.502;9.860;2024-02-14T05:47:58;3.03;;;2.50;;
71288;SDS011;59068;52.502;9.860;2024-02-14T05:50:27;4.00;;;2.80;;
71288;SDS011;59068;52.502;9.860;2024-02-14T05:52:54;2.47;;;1.97;;
71288;SDS011;59068;52.502;9.860;2024-02-14T05:55:22;2.90;;;2.17;;
71288;SDS011;59068;52.502;9.860;2024-02-14T05:57:48;3.37;;;2.57;;
71288;SDS011;59068;52.502;9.860;2024-02-14T06:00:15;2.67;;;2.40;;
71288;SDS011;59068;52.502;9.860;2024-02-14T06:02:43;2.83;;;2.40;;
71288;SDS011;59068;52.502;9.860;2024-02-14T06:05:10;3.83;;;2.10;;
71288;SDS011;59068;52.502;9.860;2024-02-14T06:07:38;3.00;;;2.57;;
71288;SDS011;59068;52.502;9.860;2024-02-14T06:10:05;2.87;;;2.30;;
71288;SDS011;59068;52.502;9.860;2024-02-14T06:12:33;6.33;;;3.50;;
71288;SDS011;59068;52.502;9.860;2024-02-14T06:14:59;4.53;;;2.90;;
71288;SDS011;59068;52.502;9.860;2024-02-14T06:17:26;4.10;;;2.70;;
71288;SDS011;59068;52.502;9.860;2024-02-14T06:19:53;4.93;;;2.93;;
71288;SDS011;59068;52.502;9.860;2024-02-14T06:22:20;4.10;;;2.83;;
71288;SDS011;59068;52.502;9.860;2024-02-14T06:24:48;3.53;;;2.27;;
71288;SDS011;59068;52.502;9.860;2024-02-14T06:27:14;3.93;;;2.10;;
71288;SDS011;59068;52.502;9.860;2024-02-14T06:29:41;3.17;;;2.53;;
71288;SDS011;59068;52.502;9.860;2024-02-14T06:32:08;2.73;;;2.53;;
71288;SDS011;59068;52.502;9.860;2024-02-14T06:34:34;2.93;;;2.50;;
71288;SDS011;59068;52.502;9.860;2024-02-14T06:37:00;4.13;;;2.23;;
71288;SDS011;59068;52.502;9.860;2024-02-14T06:39:27;2.33;;;2.13;;
71288;SDS011;59068;52.502;9.860;2024-02-14T06:41:55;5.73;;;2.90;;
71288;SDS011;59068;52.502;9.860;2024-02-14T06:44:22;3.07;;;2.60;;
71288;SDS011;59068;52.502;9.860;2024-02-14T06:46:48;3.30;;;2.60;;
71288;SDS011;59068;52.502;9.860;2024-02-14T06:49:15;5.67;;;2.83;;
71288;SDS011;59068;52.502;9.860;2024-02-14T06:51:41;2.90;;;2.20;;
71288;SDS011;59068;52.502;9.860;2024-02-14T06:54:08;3.67;;;2.30;;
71288;SDS011;59068;52.502;9.860;2024-02-14T06:56:35;3.00;;;2.37;;
71288;SDS011;59068;52.502;9.860;2024-02-14T06:59:02;2.87;;;2.30;;
71288;SDS011;59068;52.502;9.860;2024-02-14T07:01:29;2.43;;;2.23;;
71288;SDS011;59068;52.502;9.860;2024-02-14T07:03:55;3.60;;;2.30;;
71288;SDS011;59068;52.502;9.860;2024-02-14T07:06:22;3.57;;;2.40;;
71288;SDS011;59068;52.502;9.860;2024-02-14T07:08:48;3.03;;;2.23;;
71288;SDS011;59068;52.502;9.860;2024-02-14T07:11:16;2.07;;;1.87;;
71288;SDS011;59068;52.502;9.860;2024-02-14T07:13:42;3.13;;;2.17;;
71288;SDS011;59068;52.502;9.860;2024-02-14T07:16:10;3.23;;;2.73;;
71288;SDS011;59068;52.502;9.860;2024-02-14T07:18:36;4.33;;;1.87;;
71288;SDS011;59068;52.502;9.860;2024-02-14T07:21:03;2.83;;;2.20;;
71288;SDS011;59068;52.502;9.860;2024-02-14T07:23:30;2.20;;;2.00;;
71288;SDS011;59068;52.502;9.860;2024-02-14T07:25:58;3.23;;;2.33;;
71288;SDS011;59068;52.502;9.860;2024-02-14T07:28:25;2.70;;;1.93;;
71288;SDS011;59068;52.502;9.860;2024-02-14T07:30:52;2.57;;;1.87;;
71288;SDS011;59068;52.502;9.860;2024-02-14T07:33:20;3.70;;;2.17;;
71288;SDS011;59068;52.502;9.860;2024-02-14T07:35:46;2.53;;;2.33;;
71288;SDS011;59068;52.502;9.860;2024-02-14T07:38:13;3.00;;;2.17;;
71288;SDS011;59068;52.502;9.860;2024-02-14T07:40:39;4.23;;;2.50;;
71288;SDS011;59068;52.502;9.860;2024-02-14T07:43:06;3.10;;;2.30;;
71288;SDS011;59068;52.502;9.860;2024-02-14T07:45:33;2.33;;;2.00;;
71288;SDS011;59068;52.502;9.860;2024-02-14T07:48:01;4.70;;;2.30;;
71288;SDS011;59068;52.502;9.860;2024-02-14T07:50:29;2.20;;;2.00;;
71288;SDS011;59068;52.502;9.860;2024-02-14T07:52:55;2.03;;;1.90;;
71288;SDS011;59068;52.502;9.860;2024-02-14T07:55:22;2.73;;;2.23;;
71288;SDS011;59068;52.502;9.860;2024-02-14T07:57:49;2.60;;;2.30;;
71288;SDS011;59068;52.502;9.860;2024-02-14T08:00:15;3.17;;;2.40;;
71288;SDS011;59068;52.502;9.860;2024-02-14T08:02:47;2.63;;;1.90;;
71288;SDS011;59068;52.502;9.860;2024-02-14T08:05:13;2.50;;;1.70;;
71288;SDS011;59068;52.502;9.860;2024-02-14T08:07:41;2.57;;;1.80;;
71288;SDS011;59068;52.502;9.860;2024-02-14T08:10:08;2.90;;;1.90;;
71288;SDS011;59068;52.502;9.860;2024-02-14T08:12:35;2.57;;;2.03;;
71288;SDS011;59068;52.502;9.860;2024-02-14T08:15:01;2.13;;;1.97;;
71288;SDS011;59068;52.502;9.860;2024-02-14T08:17:29;1.80;;;1.70;;
71288;SDS011;59068;52.502;9.860;2024-02-14T08:19:56;1.80;;;1.70;;
71288;SDS011;59068;52.502;9.860;2024-02-14T08:22:22;1.90;;;1.80;;
71288;SDS011;59068;52.502;9.860;2024-02-14T08:24:50;2.73;;;2.53;;
71288;SDS011;59068;52.502;9.860;2024-02-14T08:27:16;1.90;;;1.60;;
71288;SDS011;59068;52.502;9.860;2024-02-14T08:29:42;3.20;;;2.30;;
71288;SDS011;59068;52.502;9.860;2024-02-14T08:32:09;3.33;;;2.50;;
71288;SDS011;59068;52.502;9.860;2024-02-14T08:34:35;2.13;;;1.93;;
71288;SDS011;59068;52.502;9.860;2024-02-14T08:37:02;3.10;;;2.10;;
71288;SDS011;59068;52.502;9.860;2024-02-14T08:39:28;3.03;;;2.33;;
71288;SDS011;59068;52.502;9.860;2024-02-14T08:41:56;2.73;;;1.87;;
71288;SDS011;59068;52.502;9.860;2024-02-14T08:44:23;1.60;;;1.50;;
71288;SDS011;59068;52.502;9.860;2024-02-14T08:46:50;1.77;;;1.50;;
71288;SDS011;59068;52.502;9.860;2024-02-14T08:49:16;2.30;;;1.50;;
71288;SDS011;59068;52.502;9.860;2024-02-14T08:51:43;1.17;;;1.07;;
71288;SDS011;59068;52.502;9.860;2024-02-14T08:54:12;1.50;;;1.40;;
71288;SDS011;59068;52.502;9.860;2024-02-14T08:56:41;1.33;;;1.10;;
71288;SDS011;59068;52.502;9.860;2024-02-14T08:59:08;1.53;;;1.43;;
71288;SDS011;59068;52.502;9.860;2024-02-14T09:01:36;2.17;;;1.63;;
71288;SDS011;59068;52.502;9.860;2024-02-14T09:04:02;1.70;;;1.40;;
71288;SDS011;59068;52.502;9.860;2024-02-14T09:06:28;1.73;;;1.47;;
71288;SDS011;59068;52.502;9.860;2024-02-14T09:08:55;3.13;;;1.70;;
71288;SDS011;59068;52.502;9.860;2024-02-14T09:11:22;1.97;;;1.83;;
71288;SDS011;59068;52.502;9.860;2024-02-14T09:13:48;2.50;;;2.30;;
71288;SDS011;59068;52.502;9.860;2024-02-14T09:16:20;2.40;;;2.20;;
71288;SDS011;59068;52.502;9.860;2024-02-14T09:18:47;2.67;;;2.47;;
71288;SDS011;59068;52.502;9.860;2024-02-14T09:21:13;3.93;;;2.60;;
71288;SDS011;59068;52.502;9.860;2024-02-14T09:23:40;3.20;;;2.90;;
71288;SDS011;59068;52.502;9.860;2024-02-14T09:26:07;4.07;;;3.00;;
71288;SDS011;59068;52.502;9.860;2024-02-14T09:28:33;3.10;;;2.90;;
71288;SDS011;59068;52.502;9.860;2024-02-14T09:31:02;3.60;;;2.87;;
71288;SDS011;59068;52.502;9.860;2024-02-14T09:33:30;4.03;;;3.70;;
71288;SDS011;59068;52.502;9.860;2024-02-14T09:35:57;3.80;;;3.50;;
71288;SDS011;59068;52.502;9.860;2024-02-14T09:38:23;4.30;;;3.90;;
71288;SDS011;59068;52.502;9.860;2024-02-14T09:40:50;4.63;;;4.20;;
71288;SDS011;59068;52.502;9.860;2024-02-14T09:43:20;5.33;;;4.83;;
71288;SDS011;59068;52.502;9.860;2024-02-14T09:45:51;5.63;;;5.10;;
71288;SDS011;59068;52.502;9.860;2024-02-14T09:48:17;6.47;;;5.40;;
71288;SDS011;59068;52.502;9.860;2024-02-14T09:50:46;6.60;;;5.90;;
71288;SDS011;59068;52.502;9.860;2024-02-14T09:53:15;6.87;;;6.27;;
71288;SDS011;59068;52.502;9.860;2024-02-14T09:55:42;8.37;;;6.60;;
71288;SDS011;59068;52.502;9.860;2024-02-14T09:58:09;8.40;;;7.27;;
71288;SDS011;59068;52.502;9.860;2024-02-14T10:00:35;7.47;;;6.77;;
71288;SDS011;59068;52.502;9.860;2024-02-14T10:09:29;8.77;;;7.33;;
71288;SDS011;59068;52.502;9.860;2024-02-14T10:11:55;8.37;;;7.53;;
71288;SDS011;59068;52.502;9.860;2024-02-14T10:14:22;9.13;;;8.23;;
71288;SDS011;59068;52.502;9.860;2024-02-14T10:16:49;8.60;;;7.37;;
71288;SDS011;59068;52.502;9.860;2024-02-14T10:19:15;9.47;;;8.57;;
71288;SDS011;59068;52.502;9.860;2024-02-14T10:21:42;9.07;;;8.20;;
71288;SDS011;59068;52.502;9.860;2024-02-14T10:24:08;9.83;;;8.93;;
71288;SDS011;59068;52.502;9.860;2024-02-14T10:26:36;9.90;;;8.90;;
71288;SDS011;59068;52.502;9.860;2024-02-14T10:29:05;9.00;;;8.10;;
71288;SDS011;59068;52.502;9.860;2024-02-14T10:31:35;10.33;;;9.23;;
71288;SDS011;59068;52.502;9.860;2024-02-14T10:34:01;9.83;;;8.83;;
71288;SDS011;59068;52.502;9.860;2024-02-14T10:36:27;9.10;;;8.30;;
71288;SDS011;59068;52.502;9.860;2024-02-14T10:39:02;9.90;;;8.90;;
71288;SDS011;59068;52.502;9.860;2024-02-14T10:41:31;9.93;;;8.97;;
71288;SDS011;59068;52.502;9.860;2024-02-14T10:44:04;9.47;;;8.00;;
71288;SDS011;59068;52.502;9.860;2024-02-14T10:46:31;11.57;;;9.03;;
71288;SDS011;59068;52.502;9.860;2024-02-14T10:48:59;8.47;;;7.60;;
71288;SDS011;59068;52.502;9.860;2024-02-14T10:51:29;10.77;;;9.33;;
71288;SDS011;59068;52.502;9.860;2024-02-14T10:53:58;9.07;;;8.17;;
71288;SDS011;59068;52.502;9.860;2024-02-14T10:56:27;9.17;;;8.27;;
71288;SDS011;59068;52.502;9.860;2024-02-14T10:58:56;7.73;;;7.03;;
71288;SDS011;59068;52.502;9.860;2024-02-14T11:01:29;9.13;;;8.23;;
71288;SDS011;59068;52.502;9.860;2024-02-14T11:04:03;8.47;;;7.60;;
71288;SDS011;59068;52.502;9.860;2024-02-14T11:06:31;8.60;;;7.80;;
71288;SDS011;59068;52.502;9.860;2024-02-14T11:09:00;9.53;;;8.63;;
71288;SDS011;59068;52.502;9.860;2024-02-14T11:11:32;8.30;;;7.60;;
71288;SDS011;59068;52.502;9.860;2024-02-14T11:13:59;9.33;;;7.53;;
71288;SDS011;59068;52.502;9.860;2024-02-14T11:16:27;8.07;;;7.27;;
71288;SDS011;59068;52.502;9.860;2024-02-14T11:19:05;7.40;;;6.70;;
71288;SDS011;59068;52.502;9.860;2024-02-14T11:21:35;7.13;;;6.53;;
71288;SDS011;59068;52.502;9.860;2024-02-14T11:24:04;7.23;;;6.53;;
71288;SDS011;59068;52.502;9.860;2024-02-14T11:26:37;8.20;;;7.40;;
71288;SDS011;59068;52.502;9.860;2024-02-14T11:29:04;8.27;;;7.57;;
71288;SDS011;59068;52.502;9.860;2024-02-14T11:31:35;8.10;;;7.40;;
71288;SDS011;59068;52.502;9.860;2024-02-14T11:34:04;8.00;;;7.27;;
71288;SDS011;59068;52.502;9.860;2024-02-14T11:36:33;8.23;;;7.47;;
71288;SDS011;59068;52.502;9.860;2024-02-14T11:39:04;8.33;;;7.60;;
71288;SDS011;59068;52.502;9.860;2024-02-14T11:41:32;7.50;;;6.77;;
71288;SDS011;59068;52.502;9.860;2024-02-14T11:44:01;7.00;;;6.40;;
71288;SDS011;59068;52.502;9.860;2024-02-14T11:46:29;7.90;;;7.10;;
71288;SDS011;59068;52.502;9.860;2024-02-14T11:48:59;10.13;;;7.07;;
71288;SDS011;59068;52.502;9.860;2024-02-14T11:51:28;7.77;;;7.07;;
71288;SDS011;59068;52.502;9.860;2024-02-14T11:53:56;7.40;;;6.67;;
71288;SDS011;59068;52.502;9.860;2024-02-14T11:56:29;8.50;;;7.70;;
71288;SDS011;59068;52.502;9.860;2024-02-14T11:59:00;7.73;;;7.03;;
71288;SDS011;59068;52.502;9.860;2024-02-14T12:01:32;8.30;;;7.50;;
71288;SDS011;59068;52.502;9.860;2024-02-14T12:04:04;7.93;;;7.03;;
71288;SDS011;59068;52.502;9.860;2024-02-14T12:06:33;8.70;;;7.73;;
71288;SDS011;59068;52.502;9.860;2024-02-14T12:09:00;7.63;;;6.93;;
71288;SDS011;59068;52.502;9.860;2024-02-14T12:11:31;8.67;;;7.47;;
71288;SDS011;59068;52.502;9.860;2024-02-14T12:14:00;7.50;;;6.90;;
71288;SDS011;59068;52.502;9.860;2024-02-14T12:16:27;7.47;;;6.77;;
71288;SDS011;59068;52.502;9.860;2024-02-14T12:19:05;7.97;;;7.17;;
71288;SDS011;59068;52.502;9.860;2024-02-14T12:21:35;7.97;;;7.27;;
71288;SDS011;59068;52.502;9.860;2024-02-14T12:24:03;8.20;;;7.40;;
71288;SDS011;59068;52.502;9.860;2024-02-14T12:26:30;8.53;;;7.73;;
71288;SDS011;59068;52.502;9.860;2024-02-14T12:29:00;8.67;;;7.83;;
71288;SDS011;59068;52.502;9.860;2024-02-14T12:31:29;7.63;;;6.93;;
71288;SDS011;59068;52.502;9.860;2024-02-14T12:33:56;7.57;;;6.87;;
71288;SDS011;59068;52.502;9.860;2024-02-14T12:36:28;8.47;;;7.67;;
71288;SDS011;59068;52.502;9.860;2024-02-14T12:38:56;8.63;;;7.83;;
71288;SDS011;59068;52.502;9.860;2024-02-14T12:41:23;8.97;;;8.00;;
71288;SDS011;59068;52.502;9.860;2024-02-14T12:43:52;9.13;;;8.20;;
71288;SDS011;59068;52.502;9.860;2024-02-14T12:46:19;10.53;;;8.27;;
71288;SDS011;59068;52.502;9.860;2024-02-14T12:48:47;9.80;;;8.87;;
71288;SDS011;59068;52.502;9.860;2024-02-14T12:51:15;9.23;;;8.40;;
71288;SDS011;59068;52.502;9.860;2024-02-14T12:53:44;8.97;;;8.13;;
71288;SDS011;59068;52.502;9.860;2024-02-14T12:56:10;9.00;;;8.20;;
71288;SDS011;59068;52.502;9.860;2024-02-14T12:58:37;9.90;;;8.77;;
71288;SDS011;59068;52.502;9.860;2024-02-14T13:01:03;9.07;;;8.20;;
71288;SDS011;59068;52.502;9.860;2024-02-14T13:03:32;9.67;;;8.67;;
71288;SDS011;59068;52.502;9.860;2024-02-14T13:05:58;12.33;;;9.90;;
71288;SDS011;59068;52.502;9.860;2024-02-14T13:08:26;9.80;;;8.73;;
71288;SDS011;59068;52.502;9.860;2024-02-14T13:10:58;9.50;;;8.53;;
71288;SDS011;59068;52.502;9.860;2024-02-14T13:13:28;9.93;;;8.93;;
71288;SDS011;59068;52.502;9.860;2024-02-14T13:15:56;9.00;;;8.20;;
71288;SDS011;59068;52.502;9.860;2024-02-14T13:18:24;10.07;;;9.07;;
71288;SDS011;59068;52.502;9.860;2024-02-14T13:20:51;10.67;;;9.40;;
71288;SDS011;59068;52.502;9.860;2024-02-14T13:23:24;9.23;;;8.37;;
71288;SDS011;59068;52.502;9.860;2024-02-14T13:25:51;9.23;;;8.33;;
71288;SDS011;59068;52.502;9.860;2024-02-14T13:28:19;10.43;;;9.33;;
71288;SDS011;59068;52.502;9.860;2024-02-14T13:30:46;11.30;;;10.23;;
71288;SDS011;59068;52.502;9.860;2024-02-14T13:33:14;11.03;;;9.73;;
71288;SDS011;59068;52.502;9.860;2024-02-14T13:35:42;10.83;;;9.77;;
71288;SDS011;59068;52.502;9.860;2024-02-14T13:38:08;11.20;;;10.00;;
71288;SDS011;59068;52.502;9.860;2024-02-14T13:40:35;9.87;;;8.83;;
71288;SDS011;59068;52.502;9.860;2024-02-14T13:43:02;9.37;;;8.47;;
71288;SDS011;59068;52.502;9.860;2024-02-14T13:45:39;10.93;;;9.93;;
71288;SDS011;59068;52.502;9.860;2024-02-14T13:48:06;10.60;;;9.80;;
71288;SDS011;59068;52.502;9.860;2024-02-14T13:50:34;10.33;;;9.17;;
71288;SDS011;59068;52.502;9.860;2024-02-14T13:53:00;9.57;;;8.57;;
71288;SDS011;59068;52.502;9.860;2024-02-14T13:55:28;9.63;;;8.63;;
71288;SDS011;59068;52.502;9.860;2024-02-14T13:57:54;9.40;;;8.47;;
71288;SDS011;59068;52.502;9.860;2024-02-14T14:00:21;10.03;;;9.03;;
71288;SDS011;59068;52.502;9.860;2024-02-14T14:02:48;10.60;;;9.50;;
71288;SDS011;59068;52.502;9.860;2024-02-14T14:05:16;10.83;;;9.73;;
71288;SDS011;59068;52.502;9.860;2024-02-14T14:07:43;10.50;;;9.50;;
71288;SDS011;59068;52.502;9.860;2024-02-14T14:10:11;9.63;;;8.73;;
71288;SDS011;59068;52.502;9.860;2024-02-14T14:12:37;8.43;;;7.63;;
71288;SDS011;59068;52.502;9.860;2024-02-14T14:15:04;9.40;;;8.37;;
71288;SDS011;59068;52.502;9.860;2024-02-14T14:17:31;8.10;;;7.30;;
71288;SDS011;59068;52.502;9.860;2024-02-14T14:19:58;8.27;;;7.57;;
71288;SDS011;59068;52.502;9.860;2024-02-14T14:22:25;7.97;;;7.33;;
71288;SDS011;59068;52.502;9.860;2024-02-14T14:24:54;7.60;;;6.90;;
71288;SDS011;59068;52.502;9.860;2024-02-14T14:27:20;7.00;;;6.40;;
71288;SDS011;59068;52.502;9.860;2024-02-14T14:29:47;7.30;;;6.70;;
71288;SDS011;59068;52.502;9.860;2024-02-14T14:32:13;6.40;;;5.80;;
71288;SDS011;59068;52.502;9.860;2024-02-14T14:34:41;5.77;;;5.37;;
71288;SDS011;59068;52.502;9.860;2024-02-14T14:37:09;6.20;;;5.70;;
71288;SDS011;59068;52.502;9.860;2024-02-14T14:39:36;6.33;;;5.77;;
71288;SDS011;59068;52.502;9.860;2024-02-14T14:42:02;6.30;;;5.80;;
71288;SDS011;59068;52.502;9.860;2024-02-14T14:44:29;5.80;;;5.30;;
71288;SDS011;59068;52.502;9.860;2024-02-14T14:46:56;5.50;;;5.10;;
71288;SDS011;59068;52.502;9.860;2024-02-14T14:49:23;5.67;;;4.93;;
71288;SDS011;59068;52.502;9.860;2024-02-14T14:51:49;5.40;;;4.90;;
71288;SDS011;59068;52.502;9.860;2024-02-14T14:54:17;5.33;;;4.50;;
71288;SDS011;59068;52.502;9.860;2024-02-14T14:56:44;5.27;;;4.87;;